Time;durP1;ratioP1;P1;durP2;ratioP2;P2;SDS_P1;SDS_P2;PMS_P1;PMS_P2;Temp;Humidity;BMP_temperature;BMP_pressure;BME280_temperature;BME280_humidity;BME280_pressure;Samples;Min_cycle;Max_cycle;Signal;HPM_P1;HPM_P2
2024/01/29 00:00:25;;;;;;;0.10;0.10;;;7.30;99.90;;;;;;5001494;28;20093;-85
2024/01/29 00:02:51;;;;;;;0.15;0.15;;;7.30;99.90;;;;;;5005832;28;20108;-84
2024/01/29 00:05:17;;;;;;;0.38;0.38;;;7.30;99.90;;;;;;4999092;28;20021;-81
2024/01/29 00:07:43;;;;;;;0.00;0.00;;;7.40;99.90;;;;;;5010838;28;20042;-85
2024/01/29 00:10:09;;;;;;;0.10;0.10;;;7.50;99.90;;;;;;4996412;28;20042;-81
2024/01/29 00:12:35;;;;;;;0.43;0.38;;;7.50;99.90;;;;;;4996062;28;20388;-78
2024/01/29 00:15:01;;;;;;;0.30;0.30;;;7.40;99.90;;;;;;4994407;28;20038;-80
2024/01/29 00:17:26;;;;;;;0.82;0.82;;;7.50;99.90;;;;;;5006280;28;20112;-80
2024/01/29 00:19:52;;;;;;;1.25;0.90;;;7.50;99.90;;;;;;5011444;28;20543;-84
2024/01/29 00:22:18;;;;;;;0.20;0.20;;;7.50;99.90;;;;;;4994927;28;20022;-81
2024/01/29 00:24:44;;;;;;;0.00;0.00;;;7.40;99.90;;;;;;5007834;28;20387;-78
2024/01/29 00:27:10;;;;;;;0.40;0.40;;;7.40;99.90;;;;;;5008572;28;20056;-80
2024/01/29 00:29:36;;;;;;;0.35;0.35;;;7.40;99.90;;;;;;5018979;28;20034;-83
2024/01/29 00:32:01;;;;;;;1.35;1.25;;;7.40;99.90;;;;;;5005864;28;20029;-82
2024/01/29 00:34:28;;;;;;;2.42;1.05;;;7.40;99.90;;;;;;4999673;28;20037;-84
2024/01/29 00:36:53;;;;;;;0.32;0.32;;;7.70;99.90;;;;;;4995230;28;20112;-84
2024/01/29 00:39:19;;;;;;;1.17;0.98;;;7.80;99.90;;;;;;5005438;28;20450;-82
2024/01/29 00:41:45;;;;;;;0.32;0.10;;;7.70;99.90;;;;;;4999418;28;20060;-83
2024/01/29 00:44:11;;;;;;;3.83;0.60;;;7.80;99.90;;;;;;5005084;28;20034;-83
2024/01/29 00:46:39;;;;;;;0.10;0.10;;;7.90;99.90;;;;;;5012687;28;20030;-83
2024/01/29 00:49:05;;;;;;;0.57;0.57;;;7.70;99.90;;;;;;5015142;28;20088;-84
2024/01/29 00:51:31;;;;;;;0.00;0.00;;;7.80;99.90;;;;;;5015024;28;20041;-82
2024/01/29 00:53:56;;;;;;;0.00;0.00;;;7.90;99.90;;;;;;5010099;28;20030;-82
2024/01/29 00:56:22;;;;;;;0.00;0.00;;;7.80;99.90;;;;;;5012598;28;20037;-83
2024/01/29 00:58:48;;;;;;;0.05;0.05;;;7.80;99.90;;;;;;4995856;28;20036;-84
2024/01/29 01:01:14;;;;;;;2.92;2.58;;;8.00;99.90;;;;;;5010107;28;20026;-84
2024/01/29 01:03:40;;;;;;;0.10;0.10;;;8.00;99.90;;;;;;5011503;28;20014;-84
2024/01/29 01:06:06;;;;;;;0.10;0.10;;;8.00;99.90;;;;;;5006960;28;20382;-85
2024/01/29 01:08:31;;;;;;;0.10;0.10;;;7.80;99.90;;;;;;5006970;28;20367;-85
2024/01/29 01:10:57;;;;;;;0.10;0.10;;;7.60;99.90;;;;;;4988385;28;20101;-85
2024/01/29 01:13:23;;;;;;;0.10;0.10;;;7.70;99.90;;;;;;4999450;28;20498;-85
2024/01/29 01:15:49;;;;;;;0.10;0.10;;;7.60;99.90;;;;;;4980941;28;20034;-83
2024/01/29 01:18:14;;;;;;;0.20;0.20;;;7.60;99.90;;;;;;5010228;28;20592;-85
2024/01/29 01:20:41;;;;;;;0.08;0.08;;;7.50;99.90;;;;;;5007922;28;20038;-85
2024/01/29 01:23:06;;;;;;;0.10;0.10;;;7.50;99.90;;;;;;5015691;28;20461;-85
2024/01/29 01:25:32;;;;;;;0.10;0.10;;;7.70;99.90;;;;;;5002198;28;20054;-85
2024/01/29 01:27:58;;;;;;;0.00;0.00;;;7.50;99.90;;;;;;5004716;28;20026;-86
2024/01/29 01:30:25;;;;;;;0.10;0.10;;;7.40;99.90;;;;;;5013917;28;20059;-85
2024/01/29 01:32:50;;;;;;;0.10;0.10;;;7.40;99.90;;;;;;5011273;28;20033;-85
2024/01/29 01:35:16;;;;;;;0.10;0.10;;;7.30;99.90;;;;;;5014980;28;20025;-85
2024/01/29 01:37:42;;;;;;;0.10;0.10;;;7.20;99.90;;;;;;5013054;28;20715;-84
2024/01/29 01:40:09;;;;;;;0.10;0.10;;;7.10;99.90;;;;;;5015547;28;20068;-84
2024/01/29 01:42:37;;;;;;;0.10;0.10;;;7.00;99.90;;;;;;5002156;28;20475;-82
2024/01/29 01:45:04;;;;;;;0.10;0.10;;;6.80;99.90;;;;;;4994498;28;20487;-85
2024/01/29 01:47:29;;;;;;;0.08;0.08;;;6.80;99.90;;;;;;5007281;28;20398;-84
2024/01/29 01:49:55;;;;;;;0.47;0.45;;;6.70;99.90;;;;;;5014225;28;20052;-81
2024/01/29 01:52:21;;;;;;;0.10;0.10;;;6.60;99.90;;;;;;5014401;28;20018;-83
2024/01/29 01:54:48;;;;;;;0.10;0.10;;;6.40;99.90;;;;;;5008410;28;20030;-85
2024/01/29 01:57:14;;;;;;;0.00;0.00;;;6.50;99.90;;;;;;5013240;28;20415;-79
2024/01/29 01:59:40;;;;;;;0.20;0.20;;;6.40;99.90;;;;;;5001666;28;20454;-79
2024/01/29 02:02:07;;;;;;;0.10;0.10;;;6.30;99.90;;;;;;5015140;28;20054;-84
2024/01/29 02:04:34;;;;;;;0.10;0.10;;;6.30;99.90;;;;;;5012715;28;20033;-83
2024/01/29 02:07:00;;;;;;;0.10;0.10;;;6.20;99.90;;;;;;5013721;28;20022;-84
2024/01/29 02:09:26;;;;;;;1.02;1.02;;;6.30;99.90;;;;;;5011187;28;20186;-85
2024/01/29 02:11:52;;;;;;;0.10;0.10;;;6.20;99.90;;;;;;5006732;28;20427;-85
2024/01/29 02:14:18;;;;;;;0.10;0.10;;;6.20;99.90;;;;;;5012754;28;20116;-85
2024/01/29 02:16:44;;;;;;;0.00;0.00;;;6.10;99.90;;;;;;5002547;28;20097;-86
2024/01/29 02:19:15;;;;;;;0.20;0.20;;;6.00;99.90;;;;;;5004485;28;20030;-86
2024/01/29 02:21:42;;;;;;;0.10;0.10;;;6.00;99.90;;;;;;4999360;28;20030;-86
2024/01/29 02:24:08;;;;;;;0.00;0.00;;;5.80;99.90;;;;;;5001332;28;20050;-85
2024/01/29 02:26:35;;;;;;;0.13;0.13;;;5.70;99.90;;;;;;4997124;28;20034;-86
2024/01/29 02:29:01;;;;;;;0.00;0.00;;;5.70;99.90;;;;;;4999593;28;20081;-86
2024/01/29 02:31:27;;;;;;;0.08;0.08;;;5.60;99.90;;;;;;5014322;28;20038;-85
2024/01/29 02:33:53;;;;;;;0.10;0.10;;;5.70;99.90;;;;;;5001607;28;20430;-85
2024/01/29 02:36:18;;;;;;;0.10;0.10;;;5.60;99.90;;;;;;5013472;28;20140;-86
2024/01/29 02:38:44;;;;;;;0.10;0.10;;;5.50;99.90;;;;;;5010266;28;20044;-81
2024/01/29 02:41:10;;;;;;;0.10;0.10;;;5.50;99.90;;;;;;5009111;28;20034;-85
2024/01/29 02:43:36;;;;;;;0.13;0.13;;;5.60;99.90;;;;;;5007771;28;20045;-85
2024/01/29 02:46:02;;;;;;;0.00;0.00;;;5.60;99.90;;;;;;5014930;28;20029;-85
2024/01/29 02:48:28;;;;;;;0.10;0.10;;;5.60;99.90;;;;;;4994995;28;20073;-86
2024/01/29 02:50:54;;;;;;;0.10;0.10;;;5.60;99.90;;;;;;4996428;28;20467;-85
2024/01/29 02:53:20;;;;;;;0.00;0.00;;;5.50;99.90;;;;;;5013740;28;20032;-85
2024/01/29 02:55:46;;;;;;;0.10;0.10;;;5.50;99.90;;;;;;5011292;28;20034;-85
2024/01/29 02:58:11;;;;;;;1.30;1.08;;;5.40;99.90;;;;;;5010594;28;20021;-86
2024/01/29 03:00:38;;;;;;;0.10;0.10;;;5.20;99.90;;;;;;5010576;28;20390;-85
2024/01/29 03:03:04;;;;;;;0.10;0.10;;;5.10;99.90;;;;;;5009034;28;20052;-86
2024/01/29 03:05:29;;;;;;;0.10;0.10;;;5.20;99.90;;;;;;5011104;28;20099;-84
2024/01/29 03:07:55;;;;;;;0.00;0.00;;;5.40;99.90;;;;;;5002299;28;20034;-85
2024/01/29 03:10:21;;;;;;;0.10;0.10;;;5.30;99.90;;;;;;5003832;28;20128;-85
2024/01/29 03:12:47;;;;;;;0.10;0.10;;;5.30;99.90;;;;;;4997912;28;20077;-86
2024/01/29 03:15:13;;;;;;;0.08;0.08;;;5.70;99.90;;;;;;5016848;28;20049;-85
2024/01/29 03:17:38;;;;;;;0.10;0.10;;;6.00;99.90;;;;;;4995665;28;20018;-85
2024/01/29 03:20:06;;;;;;;0.57;0.45;;;6.10;99.90;;;;;;4997696;28;20430;-85
2024/01/29 03:22:31;;;;;;;1.33;0.90;;;6.30;99.90;;;;;;4998011;28;20026;-85
2024/01/29 03:24:57;;;;;;;0.65;0.52;;;6.40;99.90;;;;;;5008786;28;20080;-85
2024/01/29 03:27:23;;;;;;;0.10;0.10;;;6.60;99.90;;;;;;5012407;28;20482;-85
2024/01/29 03:29:49;;;;;;;0.15;0.15;;;6.90;99.90;;;;;;5008841;28;20029;-80
2024/01/29 03:32:14;;;;;;;0.10;0.10;;;6.90;99.90;;;;;;5011584;28;20049;-85
2024/01/29 03:34:43;;;;;;;0.10;0.10;;;6.90;99.90;;;;;;5009431;28;20085;-85
2024/01/29 03:37:12;;;;;;;0.10;0.10;;;6.80;99.90;;;;;;5010336;28;20466;-84
2024/01/29 03:39:39;;;;;;;0.00;0.00;;;6.80;99.90;;;;;;5011965;28;20372;-85
2024/01/29 03:42:05;;;;;;;0.05;0.05;;;6.80;99.90;;;;;;5007443;28;20038;-85
2024/01/29 03:44:31;;;;;;;1.65;0.43;;;6.80;99.90;;;;;;5005476;28;20022;-85
2024/01/29 03:46:58;;;;;;;0.00;0.00;;;7.00;99.90;;;;;;4996138;28;20030;-85
2024/01/29 03:49:23;;;;;;;0.10;0.10;;;7.10;99.90;;;;;;4995733;28;20088;-86
2024/01/29 03:51:49;;;;;;;0.10;0.10;;;6.80;99.90;;;;;;5002620;28;20033;-86
2024/01/29 03:54:15;;;;;;;0.10;0.10;;;6.60;99.90;;;;;;5010654;28;20483;-85
2024/01/29 03:56:43;;;;;;;0.10;0.10;;;6.60;99.90;;;;;;5012402;28;20030;-85
2024/01/29 03:59:11;;;;;;;0.10;0.10;;;6.30;99.90;;;;;;5007819;28;20395;-81
2024/01/29 04:01:38;;;;;;;0.10;0.10;;;6.30;99.90;;;;;;5023779;28;20030;-85
2024/01/29 04:04:04;;;;;;;0.00;0.00;;;6.50;99.90;;;;;;5009886;28;20022;-83
2024/01/29 04:06:30;;;;;;;0.10;0.10;;;6.60;99.90;;;;;;5020077;28;20379;-83
2024/01/29 04:08:56;;;;;;;0.00;0.00;;;6.80;99.90;;;;;;5001775;28;20033;-85
2024/01/29 04:11:23;;;;;;;0.57;0.57;;;6.80;99.90;;;;;;5001002;28;20479;-81
2024/01/29 04:13:48;;;;;;;0.10;0.10;;;6.60;99.90;;;;;;5001348;28;20022;-84
2024/01/29 04:16:14;;;;;;;0.10;0.10;;;6.40;99.90;;;;;;4997164;28;20059;-83
2024/01/29 04:18:40;;;;;;;0.57;0.57;;;6.20;99.90;;;;;;4998092;28;20534;-81
2024/01/29 04:21:07;;;;;;;0.05;0.05;;;6.30;99.90;;;;;;5010126;28;20084;-83
2024/01/29 04:23:34;;;;;;;0.10;0.10;;;6.30;99.90;;;;;;4994247;28;20102;-85
2024/01/29 04:26:00;;;;;;;0.10;0.10;;;6.30;99.90;;;;;;5003707;28;20057;-85
2024/01/29 04:28:26;;;;;;;2.50;0.45;;;6.40;99.90;;;;;;5010795;28;20050;-83
2024/01/29 04:30:52;;;;;;;0.03;0.03;;;6.40;99.90;;;;;;5011228;28;20042;-85
2024/01/29 04:33:17;;;;;;;0.10;0.10;;;6.40;99.90;;;;;;5011417;28;20033;-86
2024/01/29 04:35:44;;;;;;;0.10;0.10;;;6.50;99.90;;;;;;5009156;28;20501;-84
2024/01/29 04:38:10;;;;;;;0.30;0.30;;;6.70;99.90;;;;;;5010224;28;20048;-84
2024/01/29 04:40:39;;;;;;;0.68;0.57;;;6.70;99.90;;;;;;5008416;28;20030;-85
2024/01/29 04:43:05;;;;;;;0.55;0.55;;;6.80;99.90;;;;;;5011559;28;20111;-85
2024/01/29 04:45:31;;;;;;;0.32;0.32;;;6.80;99.90;;;;;;4997748;28;20339;-83
2024/01/29 04:47:57;;;;;;;0.55;0.55;;;6.70;99.90;;;;;;4996637;28;20509;-85
2024/01/29 04:50:23;;;;;;;0.10;0.10;;;6.60;99.90;;;;;;5008559;28;20046;-84
2024/01/29 04:52:49;;;;;;;1.20;0.75;;;6.50;99.90;;;;;;4995700;28;20030;-81
2024/01/29 04:55:15;;;;;;;0.10;0.10;;;6.70;99.90;;;;;;5011379;28;20060;-83
2024/01/29 04:57:41;;;;;;;0.75;0.47;;;6.70;99.90;;;;;;5008638;28;20414;-82
2024/01/29 05:00:08;;;;;;;0.10;0.10;;;6.60;99.90;;;;;;5009338;28;20459;-84
2024/01/29 05:02:35;;;;;;;0.10;0.10;;;6.50;99.90;;;;;;5004210;28;20378;-84
2024/01/29 05:05:01;;;;;;;0.10;0.10;;;6.50;99.90;;;;;;5006215;28;20042;-85
2024/01/29 05:07:27;;;;;;;0.10;0.10;;;6.60;99.90;;;;;;4991083;28;20022;-85
2024/01/29 05:09:54;;;;;;;0.08;0.08;;;6.50;99.90;;;;;;5002254;28;20368;-84
2024/01/29 05:12:20;;;;;;;0.10;0.10;;;6.50;99.90;;;;;;5007615;28;20061;-85
2024/01/29 05:14:47;;;;;;;0.10;0.10;;;6.50;99.90;;;;;;4998320;28;20038;-85
2024/01/29 05:17:12;;;;;;;0.28;0.28;;;6.50;99.90;;;;;;4997284;28;20038;-81
2024/01/29 05:19:43;;;;;;;0.10;0.10;;;6.40;99.90;;;;;;5009775;28;20026;-80
2024/01/29 05:22:09;;;;;;;0.20;0.20;;;6.30;99.90;;;;;;5008372;28;20034;-85
2024/01/29 05:24:35;;;;;;;1.27;1.17;;;6.40;99.90;;;;;;4991831;28;20022;-85
2024/01/29 05:27:01;;;;;;;0.40;0.40;;;6.40;99.90;;;;;;5007969;28;20537;-84
2024/01/29 05:29:26;;;;;;;0.10;0.10;;;6.50;99.90;;;;;;5009111;28;20048;-84
2024/01/29 05:31:52;;;;;;;0.10;0.10;;;6.40;99.90;;;;;;5009739;28;20105;-82
2024/01/29 05:34:18;;;;;;;1.20;0.70;;;6.30;99.90;;;;;;5010050;28;20033;-85
2024/01/29 05:36:45;;;;;;;0.10;0.10;;;6.20;99.90;;;;;;5014113;28;20068;-80
2024/01/29 05:39:12;;;;;;;0.10;0.10;;;6.20;99.90;;;;;;5012040;28;20049;-84
2024/01/29 05:41:37;;;;;;;0.55;0.55;;;6.20;99.90;;;;;;5012663;28;20022;-84
2024/01/29 05:44:03;;;;;;;0.17;0.17;;;6.30;99.90;;;;;;5006950;28;20514;-85
2024/01/29 05:46:29;;;;;;;0.10;0.10;;;6.30;99.90;;;;;;5000113;28;20068;-86
2024/01/29 05:48:55;;;;;;;0.95;0.95;;;6.30;99.90;;;;;;4997816;28;20081;-85
2024/01/29 05:51:21;;;;;;;0.15;0.15;;;6.30;99.90;;;;;;5001256;28;20022;-85
2024/01/29 05:53:46;;;;;;;0.10;0.10;;;6.50;99.90;;;;;;4997796;28;20479;-85
2024/01/29 05:56:13;;;;;;;0.10;0.10;;;6.30;99.90;;;;;;4997245;28;20122;-85
2024/01/29 05:58:42;;;;;;;0.00;0.00;;;6.40;99.90;;;;;;5014533;28;20036;-85
2024/01/29 06:01:07;;;;;;;0.10;0.10;;;6.20;99.90;;;;;;5011956;28;20108;-84
2024/01/29 06:03:33;;;;;;;0.10;0.10;;;6.30;99.90;;;;;;5010248;28;20605;-84
2024/01/29 06:05:59;;;;;;;4.28;1.95;;;6.30;99.90;;;;;;5008911;28;20057;-84
2024/01/29 06:08:25;;;;;;;0.08;0.08;;;6.40;99.90;;;;;;5007352;28;20386;-85
2024/01/29 06:10:53;;;;;;;1.05;1.05;;;6.50;99.90;;;;;;5001172;28;20039;-84
2024/01/29 06:13:19;;;;;;;0.10;0.10;;;6.50;99.90;;;;;;5012224;28;20111;-85
2024/01/29 06:15:44;;;;;;;0.60;0.60;;;6.50;99.90;;;;;;4999495;28;20062;-85
2024/01/29 06:18:11;;;;;;;0.75;0.57;;;6.50;99.90;;;;;;5025635;28;20034;-83
2024/01/29 06:20:37;;;;;;;0.63;0.38;;;6.40;99.90;;;;;;4996746;28;20010;-83
2024/01/29 06:23:03;;;;;;;2.00;1.17;;;6.10;99.90;;;;;;4995665;28;20414;-82
2024/01/29 06:25:29;;;;;;;0.70;0.65;;;6.20;99.90;;;;;;5000503;28;20026;-84
2024/01/29 06:27:54;;;;;;;0.57;0.57;;;6.10;99.90;;;;;;5013207;28;20466;-84
2024/01/29 06:30:20;;;;;;;1.67;1.58;;;6.10;99.90;;;;;;5012826;28;20454;-84
2024/01/29 06:32:46;;;;;;;0.57;0.47;;;6.30;99.90;;;;;;5005778;28;20102;-84
2024/01/29 06:35:12;;;;;;;0.00;0.00;;;6.30;99.90;;;;;;5013613;28;20496;-84
2024/01/29 06:37:38;;;;;;;1.02;0.50;;;6.30;99.90;;;;;;5012784;28;20471;-84
2024/01/29 06:40:04;;;;;;;0.10;0.10;;;6.50;99.90;;;;;;5013492;28;20049;-85
2024/01/29 06:42:30;;;;;;;0.30;0.30;;;6.20;99.90;;;;;;5006297;28;20104;-83
2024/01/29 06:44:56;;;;;;;1.40;0.45;;;6.10;99.90;;;;;;5009975;28;20415;-84
2024/01/29 06:47:22;;;;;;;3.58;1.50;;;6.00;99.90;;;;;;4996985;28;20022;-83
2024/01/29 06:49:47;;;;;;;0.65;0.47;;;6.20;99.90;;;;;;4996802;28;20391;-85
2024/01/29 06:52:13;;;;;;;0.30;0.30;;;6.20;99.90;;;;;;4993443;28;20054;-84
2024/01/29 06:54:39;;;;;;;1.50;0.70;;;6.30;99.90;;;;;;5010110;28;20589;-85
2024/01/29 06:57:05;;;;;;;0.20;0.20;;;6.20;99.90;;;;;;5011736;28;20032;-82
2024/01/29 06:59:30;;;;;;;0.30;0.30;;;6.20;99.90;;;;;;5002558;28;20065;-84
2024/01/29 07:02:04;;;;;;;0.10;0.10;;;6.30;99.90;;;;;;5010451;28;20022;-84
2024/01/29 07:04:30;;;;;;;0.00;0.00;;;6.20;99.90;;;;;;5008889;28;20022;-78
2024/01/29 07:06:56;;;;;;;0.10;0.10;;;6.10;99.90;;;;;;5001860;28;20044;-85
2024/01/29 07:09:21;;;;;;;0.10;0.10;;;6.20;99.90;;;;;;5003493;28;20044;-81
2024/01/29 07:11:47;;;;;;;0.10;0.10;;;6.20;99.90;;;;;;5008593;28;20038;-86
2024/01/29 07:14:13;;;;;;;0.68;0.68;;;6.30;99.90;;;;;;5007437;28;20038;-85
2024/01/29 07:16:39;;;;;;;0.10;0.10;;;6.20;99.90;;;;;;5009352;28;20014;-85
2024/01/29 07:19:04;;;;;;;0.10;0.10;;;6.30;99.90;;;;;;4973657;28;20023;-85
2024/01/29 07:21:30;;;;;;;0.05;0.05;;;6.50;99.90;;;;;;4998119;28;20368;-82
2024/01/29 07:23:56;;;;;;;0.25;0.25;;;6.50;99.90;;;;;;5004388;28;20034;-82
2024/01/29 07:26:22;;;;;;;0.10;0.10;;;6.40;99.90;;;;;;5000175;28;20022;-79
2024/01/29 07:28:48;;;;;;;0.40;0.40;;;6.50;99.90;;;;;;4995594;28;20658;-85
2024/01/29 07:31:14;;;;;;;0.05;0.05;;;6.50;99.90;;;;;;4991419;28;20403;-85
2024/01/29 07:33:40;;;;;;;0.75;0.75;;;6.50;99.90;;;;;;5019012;28;20060;-75
2024/01/29 07:36:07;;;;;;;0.43;0.35;;;6.40;99.90;;;;;;5008262;28;20053;-82
2024/01/29 07:38:33;;;;;;;1.13;1.02;;;6.40;99.90;;;;;;4990847;28;20422;-74
2024/01/29 07:41:00;;;;;;;0.00;0.00;;;6.40;99.90;;;;;;5002276;28;20030;-74
2024/01/29 07:43:26;;;;;;;0.10;0.10;;;6.40;99.90;;;;;;4998193;28;20034;-74
2024/01/29 07:45:52;;;;;;;1.00;0.85;;;6.60;99.90;;;;;;4998692;28;20030;-74
2024/01/29 07:48:18;;;;;;;1.38;0.80;;;6.60;99.90;;;;;;5006590;28;20493;-74
2024/01/29 07:50:46;;;;;;;0.10;0.10;;;6.60;99.90;;;;;;5005138;28;20541;-78
2024/01/29 07:53:12;;;;;;;0.88;0.77;;;6.70;99.90;;;;;;4998561;28;20022;-76
2024/01/29 07:55:38;;;;;;;0.65;0.43;;;6.70;99.90;;;;;;5000618;28;20029;-75
2024/01/29 07:58:03;;;;;;;0.65;0.65;;;6.60;99.90;;;;;;5007662;28;20027;-80
2024/01/29 08:00:29;;;;;;;0.03;0.03;;;6.50;99.90;;;;;;5005627;28;20026;-84
2024/01/29 08:02:55;;;;;;;0.70;0.57;;;6.80;99.90;;;;;;5019831;28;20068;-80
2024/01/29 08:05:21;;;;;;;2.55;1.55;;;6.70;99.90;;;;;;5004356;28;20027;-84
2024/01/29 08:07:47;;;;;;;0.15;0.15;;;6.70;99.90;;;;;;5003112;28;20089;-83
2024/01/29 08:10:12;;;;;;;1.23;1.15;;;6.70;99.90;;;;;;4996175;28;20407;-82
2024/01/29 08:12:38;;;;;;;0.73;0.73;;;6.80;99.90;;;;;;5003856;28;20022;-82
2024/01/29 08:15:05;;;;;;;0.52;0.52;;;6.80;99.90;;;;;;4996011;28;20029;-84
2024/01/29 08:17:31;;;;;;;1.50;1.40;;;6.90;99.90;;;;;;5001665;28;20607;-83
2024/01/29 08:19:56;;;;;;;0.35;0.35;;;6.90;99.90;;;;;;5006678;28;20113;-78
2024/01/29 08:22:22;;;;;;;1.55;1.38;;;7.00;99.90;;;;;;5009400;28;20382;-76
2024/01/29 08:24:48;;;;;;;0.40;0.40;;;7.20;99.90;;;;;;5007633;28;20088;-81
2024/01/29 08:27:14;;;;;;;0.73;0.55;;;7.20;99.90;;;;;;4990996;28;20021;-81
2024/01/29 08:29:40;;;;;;;0.90;0.85;;;7.20;99.90;;;;;;4999244;28;20030;-81
2024/01/29 08:32:07;;;;;;;0.10;0.10;;;7.20;99.90;;;;;;5006891;28;20022;-81
2024/01/29 08:34:33;;;;;;;0.47;0.47;;;7.30;99.90;;;;;;5007771;28;20046;-82
2024/01/29 08:36:59;;;;;;;0.50;0.50;;;7.20;99.90;;;;;;5009307;28;20512;-81
2024/01/29 08:39:25;;;;;;;0.65;0.65;;;7.50;99.90;;;;;;5003082;28;20029;-81
2024/01/29 08:41:52;;;;;;;1.98;1.88;;;7.40;99.90;;;;;;5007715;28;20030;-77
2024/01/29 08:44:19;;;;;;;0.10;0.10;;;7.60;99.90;;;;;;5002116;28;20030;-82
2024/01/29 08:46:45;;;;;;;0.20;0.20;;;7.50;99.90;;;;;;4999044;28;20028;-83
2024/01/29 08:49:12;;;;;;;0.00;0.00;;;7.60;99.90;;;;;;5004395;28;20026;-82
2024/01/29 08:51:38;;;;;;;0.17;0.17;;;7.60;99.90;;;;;;5001926;28;20041;-82
2024/01/29 08:54:04;;;;;;;0.30;0.30;;;7.60;99.90;;;;;;5006905;28;20411;-81
2024/01/29 08:56:31;;;;;;;0.35;0.35;;;7.50;99.90;;;;;;5007534;28;20061;-82
2024/01/29 08:58:58;;;;;;;0.70;0.70;;;7.50;99.90;;;;;;5004145;28;20021;-81
2024/01/29 09:01:24;;;;;;;0.63;0.50;;;7.40;99.90;;;;;;5002042;28;20032;-81
2024/01/29 09:03:51;;;;;;;0.15;0.15;;;7.40;99.90;;;;;;5006011;28;20052;-81
2024/01/29 09:06:17;;;;;;;2.08;0.88;;;7.60;99.90;;;;;;5003641;28;20491;-82
2024/01/29 09:08:43;;;;;;;0.90;0.90;;;7.60;99.90;;;;;;4994798;28;20068;-82
2024/01/29 09:11:09;;;;;;;1.92;1.23;;;7.50;99.90;;;;;;4990929;28;20092;-82
2024/01/29 09:13:36;;;;;;;0.32;0.32;;;7.60;99.90;;;;;;5006421;28;20042;-82
2024/01/29 09:16:03;;;;;;;0.75;0.75;;;7.80;99.90;;;;;;5001488;28;20041;-82
2024/01/29 09:18:29;;;;;;;0.65;0.65;;;7.90;99.90;;;;;;4998169;28;20017;-81
2024/01/29 09:20:55;;;;;;;0.10;0.10;;;8.00;99.90;;;;;;5002024;28;20030;-82
2024/01/29 09:23:21;;;;;;;4.10;0.98;;;8.10;99.90;;;;;;5007816;28;20089;-82
2024/01/29 09:25:47;;;;;;;0.77;0.68;;;8.10;99.90;;;;;;5010571;28;20018;-78
2024/01/29 09:28:13;;;;;;;3.83;1.85;;;8.20;99.90;;;;;;5008580;28;20018;-80
2024/01/29 09:30:38;;;;;;;16.88;1.00;;;8.10;99.90;;;;;;5007930;28;20030;-81
2024/01/29 09:33:05;;;;;;;1.30;1.20;;;8.10;99.90;;;;;;5013101;28;20416;-80
2024/01/29 09:35:30;;;;;;;0.75;0.75;;;8.00;99.90;;;;;;5010843;28;20022;-74
2024/01/29 09:37:56;;;;;;;2.08;1.50;;;8.10;99.90;;;;;;5011768;28;20033;-74
2024/01/29 09:40:22;;;;;;;1.90;1.35;;;8.20;99.90;;;;;;5009007;28;20034;-75
2024/01/29 09:42:50;;;;;;;0.32;0.32;;;8.30;99.90;;;;;;5009345;28;20038;-73
2024/01/29 09:45:22;;;;;;;1.00;0.93;;;8.20;99.90;;;;;;4999574;28;20037;-74
2024/01/29 09:47:51;;;;;;;0.70;0.45;;;8.50;99.90;;;;;;5007294;28;20033;-74
2024/01/29 09:50:18;;;;;;;0.45;0.35;;;8.20;99.90;;;;;;5003194;28;20045;-80
2024/01/29 09:52:45;;;;;;;1.30;1.23;;;8.50;99.90;;;;;;5001081;28;20513;-79
2024/01/29 09:55:11;;;;;;;3.50;1.58;;;8.60;99.90;;;;;;5011819;28;20547;-79
2024/01/29 09:57:38;;;;;;;0.10;0.10;;;8.80;99.90;;;;;;5006059;28;20105;-78
2024/01/29 10:00:05;;;;;;;2.97;1.58;;;8.90;99.90;;;;;;5007937;28;20120;-81
2024/01/29 10:02:37;;;;;;;0.52;0.52;;;9.10;99.90;;;;;;5006803;28;20023;-79
2024/01/29 10:05:08;;;;;;;0.10;0.10;;;9.00;99.90;;;;;;4996605;28;20030;-79
2024/01/29 10:07:34;;;;;;;0.17;0.17;;;9.20;99.90;;;;;;4992168;28;20120;-80
2024/01/29 10:10:08;;;;;;;3.28;1.33;;;9.30;99.90;;;;;;5008736;28;20513;-79
2024/01/29 10:12:34;;;;;;;1.92;1.35;;;9.60;99.90;;;;;;4998551;28;20026;-79
2024/01/29 10:15:00;;;;;;;3.45;1.65;;;10.00;99.90;;;;;;5005580;28;20021;-78
2024/01/29 10:17:26;;;;;;;6.82;2.05;;;9.80;99.90;;;;;;5008636;28;20108;-75
2024/01/29 10:19:51;;;;;;;2.05;1.08;;;10.20;99.90;;;;;;5001903;28;20081;-80
2024/01/29 10:22:21;;;;;;;1.50;1.25;;;10.10;99.90;;;;;;5010438;28;20022;-79
2024/01/29 10:25:04;;;;;;;0.95;0.95;;;10.30;99.90;;;;;;4993161;28;20022;-80
2024/01/29 10:27:30;;;;;;;1.20;1.02;;;10.50;99.90;;;;;;5005146;28;20036;-78
2024/01/29 10:29:56;;;;;;;0.55;0.55;;;10.50;99.90;;;;;;4992848;28;20041;-74
2024/01/29 10:32:23;;;;;;;1.17;1.08;;;10.60;99.90;;;;;;4999547;28;20018;-80
2024/01/29 10:34:49;;;;;;;7.38;1.70;;;10.80;99.90;;;;;;5010338;28;20041;-79
2024/01/29 10:37:15;;;;;;;0.10;0.10;;;11.10;99.90;;;;;;5010287;28;20556;-79
2024/01/29 10:39:41;;;;;;;1.05;0.98;;;11.40;99.90;;;;;;5013473;28;20503;-76
2024/01/29 10:42:12;;;;;;;1.58;1.35;;;11.40;99.90;;;;;;5007352;28;20142;-79
2024/01/29 10:44:41;;;;;;;0.33;0.30;;;11.20;99.90;;;;;;5006893;28;20131;-80
2024/01/29 10:47:19;;;;;;;0.73;0.73;;;11.20;99.90;;;;;;4996829;28;20277;-80
2024/01/29 10:49:45;;;;;;;1.48;1.45;;;10.90;99.90;;;;;;4995040;28;20030;-79
2024/01/29 10:52:12;;;;;;;0.77;0.68;;;11.40;99.90;;;;;;5006543;28;20026;-82
2024/01/29 10:54:39;;;;;;;5.13;2.65;;;11.30;99.90;;;;;;5012857;28;20076;-79
2024/01/29 10:57:09;;;;;;;2.47;1.05;;;11.20;99.90;;;;;;5012223;28;20120;-80
2024/01/29 10:59:38;;;;;;;0.45;0.32;;;11.50;99.90;;;;;;5007599;28;20038;-76
2024/01/29 11:02:05;;;;;;;2.20;1.17;;;11.80;99.90;;;;;;5009542;28;20025;-81
2024/01/29 11:04:31;;;;;;;1.05;0.95;;;11.90;99.90;;;;;;5003671;28;20029;-80
2024/01/29 11:07:05;;;;;;;3.00;2.03;;;11.90;99.90;;;;;;5012150;28;20391;-81
2024/01/29 11:09:32;;;;;;;1.40;0.93;;;12.30;99.90;;;;;;5000847;28;20117;-80
2024/01/29 11:11:58;;;;;;;0.40;0.40;;;12.20;99.90;;;;;;5003834;28;20038;-80
2024/01/29 11:14:24;;;;;;;2.63;1.73;;;12.40;99.90;;;;;;5013579;28;20035;-79
2024/01/29 11:16:53;;;;;;;7.25;3.00;;;12.90;99.90;;;;;;5000099;28;20022;-78
2024/01/29 11:19:24;;;;;;;3.13;1.73;;;12.40;99.90;;;;;;4996384;28;20101;-80
2024/01/29 11:21:53;;;;;;;0.75;0.75;;;12.30;99.90;;;;;;4995160;28;20595;-78
2024/01/29 11:24:24;;;;;;;0.10;0.10;;;12.30;99.90;;;;;;4994002;28;20034;-79
2024/01/29 11:26:50;;;;;;;8.68;1.95;;;12.90;99.90;;;;;;5008417;28;20108;-79
2024/01/29 11:29:21;;;;;;;2.90;2.55;;;12.80;99.90;;;;;;5010573;28;20156;-80
2024/01/29 11:31:48;;;;;;;0.52;0.22;;;12.30;99.90;;;;;;5007148;28;20034;-80
2024/01/29 11:34:15;;;;;;;1.48;1.48;;;12.40;99.90;;;;;;5007209;28;20022;-80
2024/01/29 11:36:41;;;;;;;6.55;1.98;;;12.90;99.90;;;;;;5012332;28;20033;-81
2024/01/29 11:39:14;;;;;;;0.75;0.55;;;13.00;99.90;;;;;;5008222;28;20026;-80
2024/01/29 11:41:48;;;;;;;1.48;0.98;;;12.90;99.90;;;;;;5010117;28;20025;-81
2024/01/29 11:44:18;;;;;;;0.13;0.13;;;12.80;99.90;;;;;;5005000;28;20034;-81
2024/01/29 11:46:44;;;;;;;3.83;1.67;;;12.80;99.90;;;;;;4995992;28;20113;-76
2024/01/29 11:49:10;;;;;;;3.38;1.42;;;12.70;99.90;;;;;;4995571;28;20471;-80
2024/01/29 11:51:39;;;;;;;0.45;0.43;;;12.70;99.90;;;;;;4994030;28;20113;-81
2024/01/29 11:54:05;;;;;;;0.00;0.00;;;13.00;99.90;;;;;;5005801;28;20034;-81
2024/01/29 11:56:31;;;;;;;0.80;0.80;;;13.20;99.90;;;;;;5026048;28;20056;-81
2024/01/29 11:59:04;;;;;;;4.90;2.08;;;13.70;99.90;;;;;;5009663;28;20069;-81
2024/01/29 12:01:31;;;;;;;0.75;0.63;;;13.30;99.90;;;;;;5007916;28;20498;-80
2024/01/29 12:03:58;;;;;;;3.33;1.35;;;13.40;99.90;;;;;;5006111;28;20113;-81
2024/01/29 12:06:25;;;;;;;5.57;3.30;;;14.00;99.90;;;;;;5003906;28;20470;-81
2024/01/29 12:08:56;;;;;;;4.05;2.30;;;14.00;99.90;;;;;;5008407;28;20494;-80
2024/01/29 12:11:24;;;;;;;0.40;0.40;;;13.60;99.90;;;;;;5000361;28;20534;-80
2024/01/29 12:13:55;;;;;;;0.65;0.40;;;14.10;99.90;;;;;;4999943;28;20022;-80
2024/01/29 12:16:24;;;;;;;3.22;1.20;;;14.90;99.90;;;;;;4997679;28;20041;-81
2024/01/29 12:18:50;;;;;;;1.67;1.58;;;15.10;99.90;;;;;;4996441;28;20037;-80
2024/01/29 12:21:16;;;;;;;2.85;1.85;;;15.30;99.90;;;;;;4994585;28;20026;-81
2024/01/29 12:23:42;;;;;;;0.47;0.47;;;15.10;99.90;;;;;;5013877;28;20048;-80
2024/01/29 12:26:08;;;;;;;2.15;1.45;;;15.10;99.90;;;;;;5012139;28;20037;-78
2024/01/29 12:28:34;;;;;;;1.75;0.65;;;15.10;99.90;;;;;;5011510;28;20563;-81
2024/01/29 12:31:06;;;;;;;0.10;0.10;;;14.80;99.90;;;;;;5009214;28;20066;-80
2024/01/29 12:33:33;;;;;;;2.22;1.17;;;14.80;99.90;;;;;;5003809;28;20597;-80
2024/01/29 12:36:16;;;;;;;1.50;0.90;;;15.00;99.90;;;;;;5010237;28;20494;-81
2024/01/29 12:38:44;;;;;;;0.75;0.65;;;14.90;99.90;;;;;;5009274;28;20387;-80
2024/01/29 12:41:10;;;;;;;3.72;1.67;;;14.80;99.90;;;;;;5011449;28;20374;-81
2024/01/29 12:43:38;;;;;;;3.47;1.38;;;15.20;99.90;;;;;;5013276;28;20034;-80
2024/01/29 12:46:14;;;;;;;0.10;0.10;;;15.80;99.90;;;;;;5001870;28;20028;-80
2024/01/29 12:48:43;;;;;;;0.55;0.55;;;15.50;99.90;;;;;;4998514;28;20384;-81
2024/01/29 12:51:13;;;;;;;1.10;1.08;;;15.30;99.90;;;;;;5000051;28;20386;-79